Time;durP1;ratioP1;P1;durP2;ratioP2;P2;SDS_P1;SDS_P2;PMS_P1;PMS_P2;Temp;Humidity;BMP_temperature;BMP_pressure;BME280_temperature;BME280_humidity;BME280_pressure;Samples;Min_cycle;Max_cycle;Signal;HPM_P1;HPM_P2
2023/04/23 00:01:27;;;;;;;4.88;3.20;;;;;;;15.28;100.00;100369.38;6299863;28;20049;-83
2023/04/23 00:04:32;;;;;;;5.10;2.90;;;;;;;15.31;100.00;100365.66;6299632;28;20049;-85
2023/04/23 00:07:34;;;;;;;4.38;2.92;;;;;;;15.37;100.00;100354.56;6299605;28;20044;-85
2023/04/23 00:10:36;;;;;;;7.43;3.45;;;;;;;15.34;100.00;100365.38;6300032;28;20041;-85
2023/04/23 00:13:40;;;;;;;4.80;3.20;;;;;;;15.25;100.00;100364.31;6292062;28;20049;-85
2023/04/23 00:16:41;;;;;;;6.65;4.10;;;;;;;15.13;100.00;100367.94;6298938;28;20041;-83
2023/04/23 00:19:43;;;;;;;7.07;4.30;;;;;;;15.13;100.00;100367.94;6287938;28;20051;-84
2023/04/23 00:22:44;;;;;;;10.85;5.18;;;;;;;15.04;100.00;100358.09;6300934;28;20049;-83
2023/04/23 00:25:45;;;;;;;11.07;5.65;;;;;;;14.88;100.00;100359.25;6288001;28;20053;-85
2023/04/23 00:28:48;;;;;;;9.80;5.55;;;;;;;14.91;100.00;100350.25;6283508;28;20054;-85
2023/04/23 00:31:50;;;;;;;9.40;5.95;;;;;;;14.69;100.00;100361.63;6300037;28;20045;-85
2023/04/23 00:34:51;;;;;;;13.93;6.13;;;;;;;14.71;100.00;100352.59;6300237;28;20049;-86
2023/04/23 00:37:52;;;;;;;10.55;5.78;;;;;;;14.80;100.00;100347.56;6304173;28;20045;-86
2023/04/23 00:40:54;;;;;;;9.50;5.68;;;;;;;14.72;100.00;100342.91;6304231;28;20053;-87
2023/04/23 00:43:58;;;;;;;11.88;6.03;;;;;;;14.61;100.00;100358.72;6303778;28;20045;-84
2023/04/23 00:47:00;;;;;;;11.93;6.50;;;;;;;14.62;100.00;100358.59;6304167;28;20056;-85
2023/04/23 00:50:03;;;;;;;11.25;6.95;;;;;;;14.49;100.00;100363.16;6303944;28;20044;-86
2023/04/23 00:53:04;;;;;;;10.77;6.65;;;;;;;14.33;100.00;100363.44;6304479;28;20045;-87
2023/04/23 00:56:07;;;;;;;11.35;6.53;;;;;;;14.03;100.00;100371.84;6289565;28;20049;-84
2023/04/23 00:59:10;;;;;;;11.05;6.53;;;;;;;14.08;100.00;100367.09;6303757;28;20345;-85
2023/04/23 01:02:12;;;;;;;10.80;6.28;;;;;;;13.93;100.00;100368.19;6303459;28;20075;-86
2023/04/23 01:05:15;;;;;;;10.90;6.13;;;;;;;13.86;100.00;100365.16;6303644;28;20460;-81
2023/04/23 01:08:18;;;;;;;11.60;7.45;;;;;;;13.71;100.00;100367.09;6303620;28;20049;-85
2023/04/23 01:11:19;;;;;;;14.32;7.18;;;;;;;13.75;100.00;100367.75;6286964;28;20041;-86
2023/04/23 01:14:22;;;;;;;13.05;7.82;;;;;;;13.60;100.00;100367.06;6294624;28;20084;-84
2023/04/23 01:17:23;;;;;;;16.95;8.48;;;;;;;13.54;100.00;100378.06;6287044;28;20059;-85
2023/04/23 01:20:25;;;;;;;13.73;7.38;;;;;;;13.51;100.00;100377.44;6303108;28;20052;-85
2023/04/23 01:23:28;;;;;;;14.90;8.63;;;;;;;13.55;100.00;100382.38;6285201;28;20064;-85
2023/04/23 01:26:30;;;;;;;20.25;9.75;;;;;;;13.41;100.00;100383.38;6294141;28;20045;-84
2023/04/23 01:29:32;;;;;;;20.02;10.45;;;;;;;13.39;100.00;100372.06;6303049;28;20460;-84
2023/04/23 01:32:34;;;;;;;24.92;11.35;;;;;;;13.23;100.00;100381.19;6303156;28;20048;-85
2023/04/23 01:35:36;;;;;;;19.85;10.98;;;;;;;13.28;100.00;100392.25;6294862;28;20049;-86
2023/04/23 01:38:39;;;;;;;22.90;10.88;;;;;;;13.12;100.00;100392.44;6303081;28;20052;-85
2023/04/23 01:41:41;;;;;;;21.67;10.75;;;;;;;13.19;100.00;100413.03;6286556;28;20055;-84
2023/04/23 01:44:42;;;;;;;21.92;10.77;;;;;;;13.21;100.00;100402.34;6302437;28;20049;-84
2023/04/23 01:47:44;;;;;;;25.52;12.05;;;;;;;13.05;100.00;100401.75;6302131;28;20055;-84
2023/04/23 01:50:45;;;;;;;21.38;10.45;;;;;;;13.02;100.00;100410.72;6302383;28;20133;-84
2023/04/23 01:53:48;;;;;;;19.80;10.25;;;;;;;12.97;100.00;100409.34;6301842;28;20052;-84
2023/04/23 01:56:53;;;;;;;24.42;11.35;;;;;;;12.98;100.00;100424.22;6298045;28;20052;-83
2023/04/23 02:00:01;;;;;;;25.73;11.68;;;;;;;12.77;100.00;100414.19;6285911;28;20044;-84
2023/04/23 02:03:02;;;;;;;22.40;10.52;;;;;;;12.75;100.00;100408.16;6290903;28;20067;-82
2023/04/23 02:06:04;;;;;;;21.77;11.38;;;;;;;12.73;100.00;100411.88;6287323;28;20586;-83
2023/04/23 02:09:07;;;;;;;27.23;11.80;;;;;;;12.88;100.00;100421.38;6299762;28;20131;-83
2023/04/23 02:12:08;;;;;;;29.33;11.90;;;;;;;12.72;100.00;100413.66;6293028;28;20049;-84
2023/04/23 02:15:11;;;;;;;25.23;11.30;;;;;;;12.64;100.00;100410.69;6301606;28;20053;-84
2023/04/23 02:18:12;;;;;;;24.58;11.68;;;;;;;12.65;100.00;100415.84;6301787;28;20048;-85
2023/04/23 02:21:14;;;;;;;23.25;11.40;;;;;;;12.62;100.00;100423.13;6277611;28;20366;-86
2023/04/23 02:24:16;;;;;;;25.35;11.38;;;;;;;12.61;100.00;100419.63;6276913;28;20049;-86
2023/04/23 02:27:18;;;;;;;23.58;10.93;;;;;;;12.65;100.00;100418.50;6283854;28;20441;-86
2023/04/23 02:30:20;;;;;;;25.55;11.95;;;;;;;12.60;100.00;100417.13;6285014;28;20075;-83
2023/04/23 02:33:21;;;;;;;24.05;10.88;;;;;;;12.67;100.00;100421.00;6293351;28;20348;-85
2023/04/23 02:36:23;;;;;;;22.52;10.50;;;;;;;12.56;100.00;100421.75;6284747;28;20048;-85
2023/04/23 02:39:25;;;;;;;20.67;11.18;;;;;;;12.52;100.00;100420.25;6301336;28;20055;-85
2023/04/23 02:42:27;;;;;;;23.67;10.88;;;;;;;12.60;100.00;100432.94;6299605;28;20551;-85
2023/04/23 02:45:28;;;;;;;27.92;11.13;;;;;;;12.62;100.00;100437.13;6301097;28;20051;-85
2023/04/23 02:48:29;;;;;;;25.73;12.30;;;;;;;12.53;100.00;100434.28;6300812;28;20049;-85
2023/04/23 02:51:31;;;;;;;25.55;10.57;;;;;;;12.57;100.00;100433.97;6290039;28;20052;-85
2023/04/23 02:54:35;;;;;;;24.70;11.38;;;;;;;12.47;100.00;100432.91;6276026;28;20052;-84
2023/04/23 02:57:37;;;;;;;27.08;10.82;;;;;;;12.35;100.00;100431.06;6276603;28;20041;-85
2023/04/23 03:00:38;;;;;;;27.08;12.57;;;;;;;12.27;100.00;100436.84;6276528;28;20425;-86
2023/04/23 03:03:40;;;;;;;27.40;12.35;;;;;;;12.23;100.00;100435.38;6276021;28;20047;-85
2023/04/23 03:06:41;;;;;;;23.73;11.45;;;;;;;12.15;100.00;100432.38;6276156;28;20426;-84
2023/04/23 03:09:44;;;;;;;26.98;11.90;;;;;;;12.24;100.00;100438.84;6276236;28;20136;-84
2023/04/23 03:12:45;;;;;;;26.52;11.68;;;;;;;12.12;100.00;100443.94;6275963;28;20258;-84
2023/04/23 03:15:46;;;;;;;27.02;11.68;;;;;;;11.99;100.00;100443.06;6275920;28;20509;-85
2023/04/23 03:18:48;;;;;;;24.98;12.57;;;;;;;12.05;100.00;100445.31;6275728;28;20068;-83
2023/04/23 03:21:49;;;;;;;22.38;11.25;;;;;;;12.04;100.00;100450.69;6276496;28;20060;-85
2023/04/23 03:24:52;;;;;;;24.17;11.88;;;;;;;11.98;100.00;100451.88;6276057;28;20045;-84
2023/04/23 03:27:55;;;;;;;27.75;12.40;;;;;;;11.85;100.00;100448.34;6275502;28;20045;-86
2023/04/23 03:30:56;;;;;;;23.85;12.40;;;;;;;11.81;100.00;100442.41;6275927;28;20092;-84
2023/04/23 03:33:57;;;;;;;24.38;11.35;;;;;;;11.71;100.00;100448.34;6275601;28;20056;-84
2023/04/23 03:36:59;;;;;;;24.05;11.10;;;;;;;11.56;100.00;100439.63;6268116;28;20128;-84
2023/04/23 03:40:06;;;;;;;25.85;11.60;;;;;;;11.62;100.00;100444.50;6259839;28;20052;-84
2023/04/23 03:43:07;;;;;;;25.88;12.50;;;;;;;11.47;100.00;100448.94;6260538;28;20044;-85
2023/04/23 03:46:09;;;;;;;26.02;11.90;;;;;;;11.53;100.00;100451.16;6263275;28;20049;-83
2023/04/23 03:49:10;;;;;;;27.77;11.18;;;;;;;11.57;100.00;100460.56;6289349;28;20044;-85
2023/04/23 03:52:11;;;;;;;25.40;12.55;;;;;;;11.42;100.00;100461.53;6288997;28;20480;-85
2023/04/23 03:55:14;;;;;;;31.13;12.40;;;;;;;11.41;100.00;100449.31;6289131;28;20048;-85
2023/04/23 03:58:15;;;;;;;22.02;11.40;;;;;;;11.32;100.00;100460.41;6290825;28;20133;-83
2023/04/23 04:01:17;;;;;;;22.90;11.20;;;;;;;11.23;100.00;100466.22;6289644;28;20052;-84
2023/04/23 04:04:18;;;;;;;25.52;10.88;;;;;;;11.23;100.00;100477.59;6279268;28;20037;-85
2023/04/23 04:07:20;;;;;;;26.65;12.20;;;;;;;11.11;100.00;100473.06;6281301;28;20048;-84
2023/04/23 04:10:23;;;;;;;25.30;11.90;;;;;;;11.09;100.00;100478.41;6278499;28;20056;-86
2023/04/23 04:13:25;;;;;;;24.90;11.48;;;;;;;11.08;100.00;100482.00;6279138;28;20044;-86
2023/04/23 04:16:26;;;;;;;25.50;11.07;;;;;;;11.12;100.00;100480.84;6278662;28;20055;-84
2023/04/23 04:19:27;;;;;;;24.58;12.02;;;;;;;10.98;100.00;100480.00;6279916;28;20602;-85
2023/04/23 04:22:29;;;;;;;22.88;10.73;;;;;;;11.02;100.00;100489.38;6280383;28;20047;-84
2023/04/23 04:25:32;;;;;;;21.13;10.60;;;;;;;10.88;100.00;100484.94;6276867;28;20036;-84
2023/04/23 04:28:35;;;;;;;21.92;10.95;;;;;;;10.92;100.00;100486.47;6277194;28;20048;-84
2023/04/23 04:31:37;;;;;;;24.25;10.93;;;;;;;11.01;100.00;100492.97;6276345;28;20049;-84
2023/04/23 04:34:39;;;;;;;21.75;11.77;;;;;;;11.06;100.00;100490.91;6274811;28;20040;-85
2023/04/23 04:37:40;;;;;;;19.80;10.60;;;;;;;11.10;100.00;100479.25;6300798;28;20454;-83
2023/04/23 04:40:44;;;;;;;22.88;11.80;;;;;;;11.01;100.00;100491.19;6295860;28;20044;-84
2023/04/23 04:43:47;;;;;;;25.23;11.05;;;;;;;10.95;100.00;100496.81;6289737;28;20041;-84
2023/04/23 04:46:48;;;;;;;25.83;11.45;;;;;;;10.96;100.00;100500.28;6291792;28;20045;-84
2023/04/23 04:49:49;;;;;;;20.73;10.25;;;;;;;10.92;100.00;100504.88;6288437;28;20052;-87
2023/04/23 04:52:51;;;;;;;30.15;12.55;;;;;;;10.81;100.00;100500.25;6301456;28;20361;-86
2023/04/23 04:55:53;;;;;;;26.55;12.25;;;;;;;10.98;100.00;100515.00;6301131;28;20072;-85
2023/04/23 04:58:55;;;;;;;23.50;10.93;;;;;;;10.97;100.00;100508.06;6289901;28;20048;-84
2023/04/23 05:01:56;;;;;;;21.20;10.65;;;;;;;10.91;100.00;100505.81;6279305;28;20060;-85
2023/04/23 05:04:58;;;;;;;26.40;11.25;;;;;;;10.99;100.00;100500.06;6286780;28;20041;-86
2023/04/23 05:08:01;;;;;;;23.20;11.10;;;;;;;11.08;100.00;100502.16;6287229;28;20045;-85
2023/04/23 05:11:03;;;;;;;31.83;12.07;;;;;;;11.08;100.00;100507.41;6287203;28;20049;-85
2023/04/23 05:14:05;;;;;;;30.17;12.50;;;;;;;11.00;100.00;100502.63;6278590;28;20472;-86
2023/04/23 05:17:06;;;;;;;26.20;12.57;;;;;;;10.87;100.00;100502.50;6285226;28;20080;-86
2023/04/23 05:20:10;;;;;;;27.67;12.88;;;;;;;10.92;100.00;100510.13;6291486;28;20049;-86
2023/04/23 05:23:11;;;;;;;25.35;12.05;;;;;;;10.97;100.00;100510.69;6283013;28;20124;-85
2023/04/23 05:26:14;;;;;;;28.13;12.88;;;;;;;10.97;100.00;100509.84;6292968;28;20052;-84
2023/04/23 05:29:18;;;;;;;25.70;12.40;;;;;;;10.84;100.00;100512.34;6285846;28;20051;-84
2023/04/23 05:32:19;;;;;;;30.48;13.30;;;;;;;10.90;100.00;100509.34;6290294;28;20048;-85
2023/04/23 05:35:20;;;;;;;27.08;12.30;;;;;;;10.95;100.00;100522.25;6285554;28;20045;-86
2023/04/23 05:38:22;;;;;;;30.77;14.05;;;;;;;10.84;100.00;100518.44;6278183;28;20053;-84
2023/04/23 05:41:25;;;;;;;30.40;13.68;;;;;;;10.93;100.00;100524.94;6283176;28;20485;-85
2023/04/23 05:44:26;;;;;;;25.50;12.60;;;;;;;11.03;100.00;100530.53;6286263;28;20254;-86
2023/04/23 05:47:28;;;;;;;29.65;14.38;;;;;;;11.03;100.00;100525.25;6278294;28;20068;-87
2023/04/23 05:50:30;;;;;;;29.58;11.80;;;;;;;10.97;100.00;100515.09;6278328;28;20045;-85
2023/04/23 05:53:31;;;;;;;27.77;12.95;;;;;;;11.06;100.00;100512.78;6292475;28;20052;-86
2023/04/23 05:56:34;;;;;;;27.48;12.15;;;;;;;11.08;100.00;100508.28;6298567;28;20059;-85
2023/04/23 05:59:35;;;;;;;28.77;12.80;;;;;;;11.15;100.00;100509.59;6296554;28;20099;-85
2023/04/23 06:02:37;;;;;;;30.20;13.73;;;;;;;11.31;100.00;100508.69;6300130;28;20079;-84
2023/04/23 06:05:38;;;;;;;26.95;12.27;;;;;;;11.44;100.00;100509.63;6301671;28;20041;-84
2023/04/23 06:08:40;;;;;;;27.30;12.93;;;;;;;11.51;100.00;100510.97;6301893;28;20048;-85
2023/04/23 06:11:43;;;;;;;27.85;12.60;;;;;;;11.42;100.00;100516.78;6301873;28;20045;-83
2023/04/23 06:14:44;;;;;;;25.02;11.50;;;;;;;11.34;100.00;100511.13;6302003;28;20048;-87
2023/04/23 06:17:45;;;;;;;26.23;11.38;;;;;;;11.35;100.00;100510.19;6301714;28;20510;-84
2023/04/23 06:20:50;;;;;;;29.30;12.88;;;;;;;11.44;100.00;100507.00;6283099;28;20369;-83
2023/04/23 06:23:51;;;;;;;33.60;14.05;;;;;;;11.47;100.00;100505.97;6276737;28;20045;-84
2023/04/23 06:26:54;;;;;;;28.98;12.45;;;;;;;11.52;100.00;100501.28;6276458;28;20059;-84
2023/04/23 06:29:55;;;;;;;27.25;13.35;;;;;;;11.59;100.00;100502.59;6283309;28;20067;-84
2023/04/23 06:32:57;;;;;;;32.25;14.38;;;;;;;11.67;100.00;100506.47;6301280;28;20056;-82
2023/04/23 06:35:58;;;;;;;30.45;13.82;;;;;;;11.73;100.00;100493.84;6301171;28;20060;-84
2023/04/23 06:38:59;;;;;;;27.92;13.20;;;;;;;11.75;100.00;100490.16;6301034;28;20055;-84
2023/04/23 06:42:02;;;;;;;27.08;13.02;;;;;;;11.77;100.00;100488.31;6301311;28;20078;-83
2023/04/23 06:45:04;;;;;;;34.75;14.05;;;;;;;11.71;100.00;100496.56;6300154;28;20040;-84
2023/04/23 06:48:06;;;;;;;30.83;13.27;;;;;;;11.74;100.00;100490.28;6300495;28;20059;-83
2023/04/23 06:51:07;;;;;;;32.67;14.18;;;;;;;11.78;100.00;100490.00;6300851;28;20341;-83
2023/04/23 06:54:09;;;;;;;30.48;12.77;;;;;;;11.81;100.00;100502.09;6300790;28;20045;-83
2023/04/23 06:57:11;;;;;;;25.33;11.93;;;;;;;11.71;100.00;100508.88;6300702;28;20370;-82
2023/04/23 07:00:13;;;;;;;29.88;12.82;;;;;;;11.66;100.00;100507.38;6300626;28;20444;-80
2023/04/23 07:03:15;;;;;;;26.50;12.30;;;;;;;11.54;100.00;100504.69;6300761;28;20057;-80
2023/04/23 07:06:16;;;;;;;28.90;12.77;;;;;;;11.49;100.00;100502.31;6299862;28;20357;-79
2023/04/23 07:09:18;;;;;;;26.67;12.50;;;;;;;11.26;100.00;100503.69;6299792;28;20048;-80
2023/04/23 07:12:21;;;;;;;33.58;13.05;;;;;;;11.31;100.00;100509.56;6298691;28;20048;-80
2023/04/23 07:15:22;;;;;;;29.02;12.10;;;;;;;11.50;100.00;100498.75;6300271;28;20040;-81
2023/04/23 07:18:24;;;;;;;29.83;13.43;;;;;;;11.63;100.00;100491.78;6300237;28;20067;-81
2023/04/23 07:21:26;;;;;;;24.85;12.10;;;;;;;11.70;100.00;100497.50;6299815;28;20052;-80
2023/04/23 07:24:27;;;;;;;23.45;11.07;;;;;;;11.80;100.00;100484.63;6300128;28;20079;-80
2023/04/23 07:27:30;;;;;;;25.45;12.70;;;;;;;11.90;100.00;100491.06;6299797;28;20056;-81
2023/04/23 07:30:31;;;;;;;33.15;14.10;;;;;;;11.84;100.00;100487.00;6300407;28;20059;-80
2023/04/23 07:33:33;;;;;;;29.13;12.52;;;;;;;11.96;100.00;100490.66;6300437;28;20044;-81
2023/04/23 07:36:34;;;;;;;28.80;13.85;;;;;;;12.02;100.00;100477.09;6298227;28;20044;-80
2023/04/23 07:39:36;;;;;;;34.65;14.30;;;;;;;12.06;100.00;100470.69;6299875;28;20053;-81
2023/04/23 07:42:39;;;;;;;34.35;13.90;;;;;;;12.12;100.00;100480.81;6300343;28;20044;-81
2023/04/23 07:45:40;;;;;;;33.63;15.25;;;;;;;12.05;100.00;100481.31;6299963;28;20444;-81
2023/04/23 07:48:41;;;;;;;35.95;14.85;;;;;;;11.97;100.00;100470.44;6299804;28;20048;-81
2023/04/23 07:51:43;;;;;;;34.78;15.68;;;;;;;11.84;100.00;100479.09;6300109;28;20056;-81
2023/04/23 07:54:45;;;;;;;34.97;15.00;;;;;;;11.84;100.00;100470.34;6299600;28;20356;-80
2023/04/23 07:57:47;;;;;;;33.17;14.20;;;;;;;11.87;100.00;100478.91;6299564;28;20468;-80
2023/04/23 08:00:49;;;;;;;31.20;13.20;;;;;;;11.92;100.00;100470.72;6299868;28;20130;-80
2023/04/23 08:03:51;;;;;;;31.08;14.52;;;;;;;11.86;100.00;100468.50;6280963;28;20052;-81
2023/04/23 08:06:52;;;;;;;34.88;14.93;;;;;;;11.95;100.00;100454.75;6274448;28;20049;-80
2023/04/23 08:09:53;;;;;;;36.13;14.23;;;;;;;11.93;100.00;100456.59;6275084;28;20048;-80
2023/04/23 08:12:56;;;;;;;30.02;13.80;;;;;;;12.04;100.00;100451.50;6274812;28;20056;-80
2023/04/23 08:15:57;;;;;;;28.88;12.63;;;;;;;12.21;100.00;100466.22;6274953;28;20052;-80
2023/04/23 08:18:59;;;;;;;29.38;13.27;;;;;;;12.35;100.00;100465.31;6274586;28;20049;-80
2023/04/23 08:22:01;;;;;;;33.45;13.40;;;;;;;12.53;100.00;100450.94;6274605;28;20056;-80
2023/04/23 08:25:03;;;;;;;31.85;12.77;;;;;;;12.72;100.00;100457.63;6274629;28;20041;-80
2023/04/23 08:28:06;;;;;;;24.05;10.88;;;;;;;12.80;100.00;100453.53;6275443;28;20045;-81
2023/04/23 08:31:08;;;;;;;22.77;10.18;;;;;;;12.84;100.00;100452.38;6274795;28;20434;-80
2023/04/23 08:34:09;;;;;;;25.83;10.93;;;;;;;12.78;100.00;100446.69;6277044;28;20059;-80
2023/04/23 08:37:10;;;;;;;25.95;9.80;;;;;;;12.75;100.00;100433.69;6279067;28;20053;-80
2023/04/23 08:40:12;;;;;;;28.10;10.68;;;;;;;12.82;100.00;100434.97;6278878;28;20083;-80
2023/04/23 08:43:19;;;;;;;21.20;9.70;;;;;;;12.83;100.00;100432.22;6278466;28;20132;-81
2023/04/23 08:46:22;;;;;;;25.65;10.68;;;;;;;12.89;100.00;100436.22;6278821;28;20045;-80
2023/04/23 08:49:28;;;;;;;28.23;12.20;;;;;;;12.94;100.00;100427.09;6278800;28;20049;-80
2023/04/23 08:52:33;;;;;;;18.60;9.20;;;;;;;13.15;100.00;100424.75;6278654;28;20436;-80
2023/04/23 08:55:35;;;;;;;19.75;9.60;;;;;;;13.25;100.00;100426.78;6279643;28;20053;-80
2023/04/23 08:58:39;;;;;;;22.20;10.48;;;;;;;13.35;100.00;100426.03;6278470;28;20048;-80
2023/04/23 09:01:41;;;;;;;24.98;10.52;;;;;;;13.38;100.00;100438.16;6278548;28;20067;-81
2023/04/23 09:04:44;;;;;;;26.20;10.07;;;;;;;13.39;100.00;100426.66;6278419;28;20422;-81
2023/04/23 09:07:45;;;;;;;21.73;9.75;;;;;;;13.41;100.00;100422.97;6278314;28;20045;-80
2023/04/23 09:10:49;;;;;;;22.45;10.45;;;;;;;13.41;100.00;100414.22;6278294;28;20048;-80
2023/04/23 09:13:51;;;;;;;18.83;9.38;;;;;;;13.58;100.00;100423.56;6278068;28;20064;-79
2023/04/23 09:16:53;;;;;;;19.00;8.48;;;;;;;13.77;100.00;100400.19;6278107;28;20045;-80
2023/04/23 09:19:55;;;;;;;16.02;7.63;;;;;;;13.83;100.00;100390.97;6279115;28;20429;-80
2023/04/23 09:22:56;;;;;;;18.48;8.27;;;;;;;14.03;100.00;100392.13;6278211;28;20449;-80
2023/04/23 09:25:58;;;;;;;16.50;8.32;;;;;;;14.03;100.00;100385.03;6277838;28;20139;-80
2023/04/23 09:29:00;;;;;;;16.20;7.85;;;;;;;14.07;100.00;100385.66;6277824;28;20053;-80
2023/04/23 09:32:07;;;;;;;13.27;6.88;;;;;;;14.17;100.00;100384.91;6277848;28;20044;-80
2023/04/23 09:35:12;;;;;;;16.73;6.47;;;;;;;14.25;100.00;100386.13;6277352;28;20460;-80
2023/04/23 09:38:14;;;;;;;13.88;6.80;;;;;;;14.31;100.00;100367.16;6277405;28;20056;-80
2023/04/23 09:41:22;;;;;;;14.77;6.90;;;;;;;14.35;100.00;100373.88;6277832;28;20048;-81
2023/04/23 09:44:28;;;;;;;12.52;6.55;;;;;;;14.38;100.00;100374.50;6276829;28;20049;-80
2023/04/23 09:47:32;;;;;;;18.23;7.82;;;;;;;14.53;100.00;100380.47;6299779;28;20045;-81
2023/04/23 09:50:35;;;;;;;13.98;6.90;;;;;;;14.64;100.00;100377.88;6302225;28;20135;-80
2023/04/23 09:53:41;;;;;;;15.25;7.88;;;;;;;14.74;100.00;100372.72;6302047;28;20053;-80
2023/04/23 09:56:43;;;;;;;14.13;5.78;;;;;;;14.78;100.00;100371.50;6302094;28;20048;-80
2023/04/23 09:59:46;;;;;;;9.02;4.95;;;;;;;14.83;100.00;100365.88;6301803;28;20053;-80
2023/04/23 10:02:49;;;;;;;12.68;5.70;;;;;;;14.90;100.00;100359.16;6302093;28;20048;-81
2023/04/23 10:05:54;;;;;;;14.90;5.60;;;;;;;15.03;100.00;100361.66;6301735;28;20048;-80
2023/04/23 10:08:56;;;;;;;9.30;4.78;;;;;;;15.10;100.00;100361.06;6301922;28;20632;-80
2023/04/23 10:12:01;;;;;;;10.75;4.95;;;;;;;15.24;100.00;100349.41;6299896;28;20049;-80
2023/04/23 10:15:05;;;;;;;8.93;4.60;;;;;;;15.27;100.00;100350.97;6301329;28;20055;-80
2023/04/23 10:18:08;;;;;;;13.95;6.15;;;;;;;15.33;98.80;100351.31;6301276;28;20148;-79
2023/04/23 10:21:11;;;;;;;10.75;5.35;;;;;;;15.42;100.00;100342.63;6301585;28;20045;-80
2023/04/23 10:24:14;;;;;;;11.98;5.10;;;;;;;15.43;100.00;100348.78;6301325;28;20055;-80
2023/04/23 10:27:16;;;;;;;10.27;5.05;;;;;;;15.47;100.00;100347.56;6301042;28;20341;-80
2023/04/23 10:30:20;;;;;;;10.55;4.90;;;;;;;15.52;100.00;100341.91;6300939;28;20056;-80
2023/04/23 10:33:22;;;;;;;8.40;4.70;;;;;;;15.68;100.00;100345.03;6301339;28;20056;-80
2023/04/23 10:36:26;;;;;;;8.85;4.43;;;;;;;15.91;99.96;100344.00;6299804;28;20133;-80
2023/04/23 10:39:30;;;;;;;7.95;3.75;;;;;;;16.20;100.00;100346.88;6276262;28;20059;-80
2023/04/23 10:42:32;;;;;;;9.30;4.50;;;;;;;16.20;94.31;100340.75;6276347;28;20056;-80
2023/04/23 10:45:34;;;;;;;9.88;4.38;;;;;;;16.28;94.01;100333.00;6275863;28;20052;-80
2023/04/23 10:48:51;;;;;;;9.02;4.35;;;;;;;16.37;95.72;100336.69;6275862;28;20067;-80
2023/04/23 10:51:59;;;;;;;6.70;3.63;;;;;;;16.47;97.04;100329.63;6275671;28;20045;-80
2023/04/23 10:55:01;;;;;;;8.18;3.35;;;;;;;16.51;96.95;100331.03;6275926;28;20119;-80
2023/04/23 10:58:05;;;;;;;7.43;3.47;;;;;;;16.54;97.17;100327.31;6275202;28;20385;-80
2023/04/23 11:01:07;;;;;;;6.78;3.05;;;;;;;16.40;95.43;100318.72;6275554;28;20455;-81
2023/04/23 11:04:22;;;;;;;5.75;3.40;;;;;;;16.49;90.90;100320.56;6276759;28;20053;-79
2023/04/23 11:07:29;;;;;;;4.57;2.75;;;;;;;16.75;96.41;100325.47;6275482;28;20048;-81
2023/04/23 11:10:32;;;;;;;7.78;4.07;;;;;;;16.94;85.95;100316.75;6275187;28;20045;-81
2023/04/23 11:13:34;;;;;;;7.57;3.75;;;;;;;16.89;88.74;100314.50;6275359;28;20467;-82
2023/04/23 11:16:38;;;;;;;8.43;3.42;;;;;;;16.73;85.04;100320.31;6275453;28;20373;-80
2023/04/23 11:19:40;;;;;;;5.53;3.25;;;;;;;16.73;84.78;100320.31;6275495;28;20151;-81
2023/04/23 11:22:44;;;;;;;5.93;3.78;;;;;;;16.86;83.64;100321.94;6275166;28;20056;-82
2023/04/23 11:25:46;;;;;;;5.35;2.60;;;;;;;16.99;84.34;100315.41;6275458;28;20045;-81
2023/04/23 11:28:52;;;;;;;4.63;3.28;;;;;;;17.35;83.48;100315.81;6276039;28;20064;-81
2023/04/23 11:31:56;;;;;;;7.78;3.25;;;;;;;17.56;80.84;100309.56;6275061;28;20357;-80
2023/04/23 11:34:59;;;;;;;5.10;2.60;;;;;;;17.72;83.47;100301.91;6275082;28;20056;-80
2023/04/23 11:38:00;;;;;;;6.00;3.25;;;;;;;17.85;80.29;100306.94;6275210;28;20052;-81
2023/04/23 11:41:04;;;;;;;5.32;2.95;;;;;;;17.80;79.31;100302.03;6275021;28;20044;-82
2023/04/23 11:44:05;;;;;;;7.63;2.83;;;;;;;17.98;77.73;100299.53;6275357;28;20056;-78
2023/04/23 11:47:10;;;;;;;6.70;2.58;;;;;;;17.96;77.52;100301.50;6274886;28;20056;-76
2023/04/23 11:50:16;;;;;;;5.35;2.65;;;;;;;17.78;77.27;100304.03;6274436;28;20107;-76
2023/04/23 11:53:18;;;;;;;3.08;2.17;;;;;;;17.59;81.52;100296.00;6274149;28;20045;-77
2023/04/23 11:56:20;;;;;;;3.80;2.30;;;;;;;17.56;84.78;100288.28;6275922;28;20507;-77
2023/04/23 11:59:21;;;;;;;5.95;2.97;;;;;;;17.57;81.59;100295.28;6274812;28;20049;-78
2023/04/23 12:02:24;;;;;;;5.88;3.45;;;;;;;17.42;84.15;100285.06;6274694;28;20430;-77
2023/04/23 12:05:28;;;;;;;7.20;3.03;;;;;;;17.54;81.57;100298.25;6274787;28;20049;-78
2023/04/23 12:08:33;;;;;;;3.90;2.47;;;;;;;17.58;86.18;100279.22;6278042;28;20060;-77
2023/04/23 12:11:36;;;;;;;5.35;2.70;;;;;;;17.96;82.37;100281.06;6279714;28;20057;-77
2023/04/23 12:14:37;;;;;;;10.15;2.95;;;;;;;18.57;75.95;100276.34;6279585;28;20063;-77
2023/04/23 12:17:40;;;;;;;7.63;2.97;;;;;;;18.76;77.87;100276.31;6279423;28;20048;-77
2023/04/23 12:20:41;;;;;;;6.22;2.08;;;;;;;18.81;79.96;100274.06;6280594;28;20060;-78
2023/04/23 12:23:44;;;;;;;5.53;2.20;;;;;;;19.15;81.68;100270.78;6279545;28;20045;-77
2023/04/23 12:26:48;;;;;;;3.13;1.80;;;;;;;19.48;72.88;100272.00;6279177;28;20182;-75
2023/04/23 12:29:59;;;;;;;2.88;2.00;;;;;;;19.13;73.04;100267.47;6279290;28;20057;-74
2023/04/23 12:33:03;;;;;;;4.15;2.05;;;;;;;18.70;70.69;100266.25;6279204;28;20053;-75
2023/04/23 12:36:11;;;;;;;3.15;1.77;;;;;;;18.39;75.81;100268.25;6281833;28;20052;-75
2023/04/23 12:39:28;;;;;;;2.77;1.83;;;;;;;18.22;74.47;100262.72;6291515;28;20344;-75
2023/04/23 12:42:30;;;;;;;3.80;2.30;;;;;;;18.49;80.25;100259.28;6289671;28;20044;-75
2023/04/23 12:45:37;;;;;;;6.03;2.20;;;;;;;18.54;76.80;100260.69;6292179;28;20052;-75
2023/04/23 12:48:39;;;;;;;5.28;2.33;;;;;;;18.55;80.29;100260.53;6288771;28;20040;-74
2023/04/23 12:51:41;;;;;;;2.92;2.30;;;;;;;18.54;78.44;100256.19;6292948;28;20044;-75
2023/04/23 12:54:43;;;;;;;6.97;2.40;;;;;;;18.55;80.02;100262.34;6303407;28;20048;-75
2023/04/23 12:57:45;;;;;;;3.47;1.90;;;;;;;18.35;77.06;100256.22;6303118;28;20113;-75
2023/04/23 13:00:46;;;;;;;4.93;2.80;;;;;;;18.31;75.88;100255.69;6303389;28;20159;-78
2023/04/23 13:03:49;;;;;;;6.57;2.33;;;;;;;18.40;73.56;100254.00;6303451;28;20056;-77
2023/04/23 13:06:50;;;;;;;3.28;2.00;;;;;;;18.43;76.50;100254.53;6302807;28;20344;-75
2023/04/23 13:09:52;;;;;;;5.82;2.28;;;;;;;18.23;78.56;100248.44;6303264;28;20055;-75
2023/04/23 13:12:53;;;;;;;7.20;2.90;;;;;;;18.21;77.14;100239.75;6300985;28;20049;-75
2023/04/23 13:15:54;;;;;;;3.05;1.55;;;;;;;18.24;76.70;100241.28;6302877;28;20372;-75
2023/04/23 13:18:57;;;;;;;1.98;1.50;;;;;;;18.27;78.71;100232.19;6287925;28;20361;-75
2023/04/23 13:21:58;;;;;;;2.42;1.20;;;;;;;18.18;75.80;100213.44;6278294;28;20045;-75
2023/04/23 13:25:00;;;;;;;0.80;0.70;;;;;;;18.06;66.39;100217.25;6278012;28;20361;-75
2023/04/23 13:28:01;;;;;;;0.80;0.52;;;;;;;17.88;66.80;100203.84;6277312;28;20163;-76
2023/04/23 13:31:03;;;;;;;0.90;0.52;;;;;;;17.83;70.54;100202.59;6277954;28;20053;-75
2023/04/23 13:34:06;;;;;;;0.60;0.60;;;;;;;17.89;71.50;100199.34;6277662;28;20175;-76
2023/04/23 13:37:08;;;;;;;0.57;0.40;;;;;;;17.97;67.67;100192.34;6297702;28;20052;-77
2023/04/23 13:40:10;;;;;;;0.40;0.40;;;;;;;18.16;70.88;100202.09;6290784;28;20059;-76
2023/04/23 13:43:12;;;;;;;0.57;0.47;;;;;;;18.28;67.94;100202.78;6277748;28;20055;-76
2023/04/23 13:46:13;;;;;;;0.93;0.68;;;;;;;18.25;64.41;100203.06;6277211;28;20049;-76
2023/04/23 13:49:16;;;;;;;0.93;0.50;;;;;;;18.36;69.13;100200.22;6277351;28;20136;-76